Time;durP1;ratioP1;P1;durP2;ratioP2;P2;SDS_P1;SDS_P2;PMS_P1;PMS_P2;Temp;Humidity;BMP_temperature;BMP_pressure;BME280_temperature;BME280_humidity;BME280_pressure;Samples;Min_cycle;Max_cycle;Signal;HPM_P1;HPM_P2
2022/04/30 00:00:04;;;;;;;9.97;3.70;;;;;;;-145.18;100.00;46625.22;4991749;28;20275;-73
2022/04/30 00:02:30;;;;;;;7.53;3.83;;;;;;;-145.18;100.00;46635.00;4991120;28;20308;-72
2022/04/30 00:04:55;;;;;;;9.50;3.50;;;;;;;-145.18;100.00;46629.13;4991460;28;20354;-72
2022/04/30 00:07:21;;;;;;;6.57;3.50;;;;;;;-145.18;100.00;46629.13;4989880;28;20113;-72
2022/04/30 00:09:48;;;;;;;7.60;3.70;;;;;;;-145.18;100.00;46631.09;4991340;28;20039;-72
2022/04/30 00:12:16;;;;;;;5.63;3.73;;;;;;;-145.18;100.00;46638.91;4991018;28;20037;-73
2022/04/30 00:14:42;;;;;;;6.97;3.33;;;;;;;-145.18;100.00;46642.81;4991701;28;20268;-72
2022/04/30 00:17:07;;;;;;;10.63;4.70;;;;;;;-145.18;100.00;46633.06;4989879;28;20268;-72
2022/04/30 00:19:33;;;;;;;7.93;3.77;;;;;;;-145.18;100.00;46638.91;4991408;28;20766;-73
2022/04/30 00:21:59;;;;;;;6.13;3.47;;;;;;;-145.18;100.00;46629.13;4990785;28;20109;-73
2022/04/30 00:24:26;;;;;;;5.50;3.83;;;;;;;-145.18;100.00;46631.09;4990968;28;20057;-72
2022/04/30 00:26:52;;;;;;;8.73;3.90;;;;;;;-145.18;100.00;46625.22;4973350;28;20038;-73
2022/04/30 00:29:17;;;;;;;12.03;4.13;;;;;;;-145.18;100.00;46631.09;4990949;28;20288;-72
2022/04/30 00:31:43;;;;;;;7.60;3.97;;;;;;;-145.18;100.00;46621.31;4990860;28;20274;-73
2022/04/30 00:34:09;;;;;;;7.87;4.17;;;;;;;-145.18;100.00;46617.41;4991053;28;20491;-72
2022/04/30 00:36:35;;;;;;;9.07;3.30;;;;;;;-145.18;100.00;46617.41;4990652;28;20033;-73
2022/04/30 00:39:00;;;;;;;10.90;4.60;;;;;;;-145.18;100.00;46619.38;4990935;28;20264;-72
2022/04/30 00:41:26;;;;;;;8.00;4.33;;;;;;;-145.18;100.00;46619.38;4989560;28;20343;-72
2022/04/30 00:43:53;;;;;;;7.03;4.40;;;;;;;-145.18;100.00;46627.19;4990577;28;20030;-72
2022/04/30 00:46:23;;;;;;;9.50;4.30;;;;;;;-145.18;100.00;46617.41;4990439;28;20088;-72
2022/04/30 00:48:49;;;;;;;8.77;3.60;;;;;;;-145.18;100.00;46625.22;4977396;28;20292;-72
2022/04/30 00:51:19;;;;;;;8.10;4.60;;;;;;;-145.18;100.00;46623.28;4970965;28;20288;-72
2022/04/30 00:53:50;;;;;;;9.13;4.90;;;;;;;-145.18;100.00;46625.22;4971307;28;20265;-72
2022/04/30 00:56:21;;;;;;;10.20;4.70;;;;;;;-145.18;100.00;46623.28;4971068;28;20272;-73
2022/04/30 00:58:48;;;;;;;9.07;4.20;;;;;;;-145.18;100.00;46631.09;4971170;28;20261;-72
2022/04/30 01:01:18;;;;;;;8.43;4.60;;;;;;;-145.18;100.00;46623.28;4970832;28;20930;-72
2022/04/30 01:03:43;;;;;;;8.87;4.77;;;;;;;-145.18;100.00;46619.38;4970068;28;20324;-72
2022/04/30 01:06:09;;;;;;;10.33;4.77;;;;;;;-145.18;100.00;46615.47;4971188;28;20339;-72
2022/04/30 01:08:36;;;;;;;10.73;5.13;;;;;;;-145.18;100.00;46615.47;4970750;28;20034;-72
2022/04/30 01:11:03;;;;;;;9.07;4.70;;;;;;;-145.18;100.00;46617.41;4971109;28;20038;-73
2022/04/30 01:13:34;;;;;;;11.97;4.33;;;;;;;-145.18;100.00;46617.41;4970803;28;20685;-73
2022/04/30 01:16:04;;;;;;;10.27;4.60;;;;;;;-145.18;100.00;46613.50;4970413;28;20696;-72
2022/04/30 01:18:34;;;;;;;9.80;5.00;;;;;;;-145.18;100.00;46640.88;4970497;28;20327;-73
2022/04/30 01:21:03;;;;;;;10.20;4.83;;;;;;;-145.18;100.00;46633.06;4970776;28;20680;-73
2022/04/30 01:23:31;;;;;;;12.57;5.30;;;;;;;-145.18;100.00;46652.59;4969995;28;20315;-73
2022/04/30 01:25:57;;;;;;;8.23;5.60;;;;;;;-145.18;100.00;46636.94;4970705;28;20309;-73
2022/04/30 01:28:23;;;;;;;11.10;5.20;;;;;;;-145.18;100.00;46636.94;4970573;28;20320;-72
2022/04/30 01:30:49;;;;;;;9.33;5.80;;;;;;;-145.18;100.00;46635.00;4971191;28;20034;-72
2022/04/30 01:38:43;;;;;;;12.17;6.47;;;;;;;-145.18;100.00;46619.38;4970963;28;20268;-72
2022/04/30 01:41:08;;;;;;;10.53;5.77;;;;;;;-145.18;100.00;46629.13;4970761;28;20260;-72
2022/04/30 01:43:33;;;;;;;12.07;6.53;;;;;;;-145.18;100.00;46619.38;4970467;28;20047;-73
2022/04/30 01:46:01;;;;;;;13.30;6.07;;;;;;;-145.18;100.00;46619.38;4971001;28;20475;-73
2022/04/30 01:48:27;;;;;;;15.97;6.60;;;;;;;-145.18;100.00;46621.31;4970112;28;20077;-73
2022/04/30 01:50:52;;;;;;;15.47;5.93;;;;;;;-145.18;100.00;46615.47;4970440;28;20717;-73
2022/04/30 01:53:18;;;;;;;11.83;6.40;;;;;;;-145.18;100.00;46615.47;4973214;28;20035;-73
2022/04/30 01:55:44;;;;;;;11.03;5.63;;;;;;;-145.18;100.00;46572.50;4974996;28;20030;-72
2022/04/30 01:58:10;;;;;;;18.30;6.33;;;;;;;-145.18;100.00;46615.47;4974009;28;20035;-72
2022/04/30 02:03:12;;;;;;;11.13;6.30;;;;;;;-145.18;100.00;46570.53;5051076;23;20054;-73
2022/04/30 02:05:40;;;;;;;12.33;5.67;;;;;;;-145.18;100.00;46615.47;4964616;28;20054;-73
2022/04/30 02:08:06;;;;;;;11.30;5.80;;;;;;;-145.18;100.00;46615.47;4973868;28;20302;-73
2022/04/30 02:10:35;;;;;;;10.37;5.73;;;;;;;-145.18;100.00;46621.31;4974606;28;20272;-73
2022/04/30 02:13:01;;;;;;;12.43;6.57;;;;;;;-145.18;100.00;46619.38;4973518;28;20085;-73
2022/04/30 02:15:29;;;;;;;11.73;6.20;;;;;;;-145.18;100.00;46615.47;4974490;28;20340;-73
2022/04/30 02:17:56;;;;;;;18.80;6.70;;;;;;;-145.18;100.00;46623.28;4973332;28;20629;-73
2022/04/30 02:20:27;;;;;;;14.67;6.70;;;;;;;-145.18;100.00;46623.28;4974368;28;20303;-72
2022/04/30 02:22:55;;;;;;;12.00;7.17;;;;;;;-145.18;100.00;46623.28;4973839;28;20265;-73
2022/04/30 02:25:21;;;;;;;12.00;6.43;;;;;;;-145.18;100.00;46623.28;4974246;28;20277;-72
2022/04/30 02:27:53;;;;;;;12.33;6.83;;;;;;;-145.18;100.00;46625.22;4973692;28;20277;-73
2022/04/30 02:30:21;;;;;;;12.93;6.60;;;;;;;-145.18;100.00;46633.06;4974106;28;20756;-73
2022/04/30 02:32:52;;;;;;;10.83;6.47;;;;;;;-145.18;100.00;46636.94;4973548;28;20273;-73
2022/04/30 02:35:24;;;;;;;10.30;6.53;;;;;;;-145.18;100.00;46638.91;4974052;28;20691;-73
2022/04/30 02:37:52;;;;;;;11.93;7.27;;;;;;;-145.18;100.00;46656.50;4973308;28;20296;-73
2022/04/30 02:40:18;;;;;;;18.23;7.83;;;;;;;-145.18;100.00;46660.41;4974243;28;20287;-72
2022/04/30 02:42:45;;;;;;;16.73;7.10;;;;;;;-145.18;100.00;46660.41;4973255;28;20637;-73
2022/04/30 02:45:12;;;;;;;12.53;6.17;;;;;;;-145.18;100.00;46660.41;4973751;28;20272;-73
2022/04/30 02:47:39;;;;;;;12.47;7.13;;;;;;;-145.18;100.00;46660.41;4973715;28;20301;-73
2022/04/30 02:50:09;;;;;;;12.53;7.33;;;;;;;-145.18;100.00;46677.97;4973857;28;20288;-73
2022/04/30 02:52:36;;;;;;;13.60;8.13;;;;;;;-145.18;100.00;46648.69;4973201;28;20272;-73
2022/04/30 02:55:01;;;;;;;14.97;7.77;;;;;;;-145.18;100.00;46666.25;4973287;28;20657;-73
2022/04/30 03:00:39;;;;;;;15.73;7.67;;;;;;;-145.18;100.00;46662.34;4974313;28;20037;-72
2022/04/30 03:03:09;;;;;;;12.97;7.60;;;;;;;-145.18;100.00;46674.06;4972359;28;20328;-72
2022/04/30 03:05:42;;;;;;;15.93;8.07;;;;;;;-145.18;100.00;46674.06;4973509;28;20276;-73
2022/04/30 03:08:12;;;;;;;16.77;8.57;;;;;;;-145.18;100.00;46683.84;4973147;28;20265;-73
2022/04/30 03:10:44;;;;;;;16.03;9.57;;;;;;;-145.18;100.00;46685.78;4973370;28;20634;-73
2022/04/30 03:13:10;;;;;;;18.20;10.57;;;;;;;-145.18;100.00;46701.41;4973010;28;20279;-73
2022/04/30 03:15:39;;;;;;;18.73;9.97;;;;;;;-145.18;100.00;46695.56;4973245;28;20669;-73
2022/04/30 03:21:41;;;;;;;19.37;10.73;;;;;;;-145.18;100.00;46701.41;4973590;28;20260;-73
2022/04/30 03:23:46;;;;;;;16.90;9.97;;;;;;;-145.18;100.00;46699.47;4972408;28;20304;-73
2022/04/30 03:26:12;;;;;;;21.10;11.37;;;;;;;-145.18;100.00;46703.38;4973188;28;20742;-73
2022/04/30 03:28:38;;;;;;;19.10;10.60;;;;;;;-145.18;100.00;46699.47;4972585;28;20311;-73
2022/04/30 03:31:05;;;;;;;18.83;9.77;;;;;;;-145.18;100.00;46701.41;4972613;28;20058;-73
2022/04/30 03:33:31;;;;;;;18.00;9.77;;;;;;;-145.18;100.00;46701.41;4972558;28;20272;-73
2022/04/30 03:35:56;;;;;;;19.77;10.50;;;;;;;-145.18;100.00;46701.41;4963483;28;20358;-73
2022/04/30 03:38:22;;;;;;;15.13;9.80;;;;;;;-145.18;100.00;46703.38;4952105;28;20482;-72
2022/04/30 03:40:47;;;;;;;20.80;10.40;;;;;;;-145.18;100.00;46701.41;4955722;28;20086;-73
2022/04/30 03:43:15;;;;;;;19.70;10.63;;;;;;;-145.18;100.00;46705.31;4951994;28;20822;-73
2022/04/30 03:45:41;;;;;;;19.13;9.90;;;;;;;-145.18;100.00;46699.47;4965108;28;20092;-73
2022/04/30 03:48:07;;;;;;;21.70;11.63;;;;;;;-145.18;100.00;46703.38;4971245;28;20367;-73
2022/04/30 03:50:32;;;;;;;23.23;10.70;;;;;;;-145.18;100.00;46699.47;4971904;28;20053;-73
2022/04/30 03:52:58;;;;;;;23.73;10.50;;;;;;;-145.18;100.00;46703.38;4958502;28;20047;-73
2022/04/30 03:55:23;;;;;;;19.83;10.53;;;;;;;-145.18;100.00;46699.47;4952194;28;20042;-73
2022/04/30 03:57:49;;;;;;;17.80;10.80;;;;;;;-145.18;100.00;46707.28;4969234;28;20034;-73
2022/04/30 04:00:15;;;;;;;22.83;12.27;;;;;;;-145.18;100.00;46693.59;4972473;28;20027;-73
2022/04/30 04:02:42;;;;;;;20.87;12.67;;;;;;;-145.18;100.00;46695.56;4961909;28;20058;-73
2022/04/30 04:05:10;;;;;;;22.47;12.90;;;;;;;-145.18;100.00;46699.47;4954820;28;20272;-73
2022/04/30 04:07:36;;;;;;;21.70;13.07;;;;;;;-145.18;100.00;46703.38;4971770;28;20312;-73
2022/04/30 04:10:02;;;;;;;24.20;12.53;;;;;;;-145.18;100.00;46701.41;4971112;28;20303;-73
2022/04/30 04:12:28;;;;;;;21.23;12.67;;;;;;;-145.18;100.00;46699.47;4970434;28;20283;-72
2022/04/30 04:17:40;;;;;;;25.30;13.43;;;;;;;-145.18;100.00;46697.50;4968096;28;20100;-72
2022/04/30 04:20:11;;;;;;;24.40;13.17;;;;;;;-145.18;100.00;46693.59;4971778;28;20280;-72
2022/04/30 04:22:37;;;;;;;25.30;12.87;;;;;;;-145.18;100.00;46699.47;4971268;28;20287;-72
2022/04/30 04:27:55;;;;;;;20.40;13.43;;;;;;;-145.18;100.00;46699.47;4971294;28;20764;-72
2022/04/30 04:30:25;;;;;;;24.10;13.67;;;;;;;-145.18;100.00;46699.47;4971412;28;20307;-72
2022/04/30 04:32:50;;;;;;;25.67;13.87;;;;;;;-145.18;100.00;46699.47;4971027;28;20811;-72
2022/04/30 04:35:16;;;;;;;24.27;13.50;;;;;;;-145.18;100.00;46701.41;4971218;28;20352;-72
2022/04/30 04:37:43;;;;;;;24.27;14.30;;;;;;;-145.18;100.00;46697.50;4971069;28;20081;-72
2022/04/30 04:40:10;;;;;;;25.17;13.63;;;;;;;-145.18;100.00;46697.50;4971658;28;20271;-72
2022/04/30 04:42:36;;;;;;;24.80;13.73;;;;;;;-145.18;100.00;46697.50;4965897;28;20611;-72
2022/04/30 04:45:03;;;;;;;28.30;14.73;;;;;;;-145.18;100.00;46701.41;4954867;28;20356;-72
2022/04/30 04:47:29;;;;;;;28.30;15.73;;;;;;;-145.18;100.00;46697.50;4970275;28;20268;-72
2022/04/30 04:49:54;;;;;;;27.07;14.30;;;;;;;-145.18;100.00;46697.50;4964475;28;20308;-72
2022/04/30 04:52:20;;;;;;;23.57;14.37;;;;;;;-145.18;100.00;46697.50;4970693;28;20061;-72
2022/04/30 04:54:45;;;;;;;21.80;13.67;;;;;;;-145.18;100.00;46689.69;4970697;28;20068;-72
2022/04/30 04:57:10;;;;;;;22.63;13.60;;;;;;;-145.18;100.00;46689.69;4971345;28;20121;-72
2022/04/30 04:59:36;;;;;;;25.23;15.27;;;;;;;-145.18;100.00;46689.69;4970767;28;20073;-72
2022/04/30 05:02:03;;;;;;;27.47;15.33;;;;;;;-145.18;100.00;46693.59;4953805;28;20492;-72
2022/04/30 05:04:29;;;;;;;24.60;14.63;;;;;;;-145.18;100.00;46693.59;4970620;28;20098;-72
2022/04/30 05:06:54;;;;;;;28.97;15.60;;;;;;;-145.18;100.00;46687.75;4970855;28;20677;-72
2022/04/30 05:09:20;;;;;;;27.03;14.63;;;;;;;-145.18;100.00;46689.69;4970986;28;20053;-72
2022/04/30 05:11:45;;;;;;;24.03;15.37;;;;;;;-145.18;100.00;46687.75;4971210;28;20030;-72
2022/04/30 05:14:10;;;;;;;27.27;15.27;;;;;;;-145.18;100.00;46691.66;4970817;28;20027;-72
2022/04/30 05:16:36;;;;;;;31.00;15.20;;;;;;;-145.18;100.00;46691.66;4971280;28;20054;-72
2022/04/30 05:19:01;;;;;;;21.97;15.20;;;;;;;-145.18;100.00;46687.75;4970507;28;20043;-72
2022/04/30 05:21:27;;;;;;;27.73;14.47;;;;;;;-145.18;100.00;46687.75;4971277;28;20089;-72
2022/04/30 05:23:52;;;;;;;22.90;13.27;;;;;;;-145.18;100.00;46685.78;4970942;28;20035;-72
2022/04/30 05:26:17;;;;;;;26.03;13.47;;;;;;;-145.18;100.00;46687.75;4971103;28;20514;-72
2022/04/30 05:28:43;;;;;;;22.27;13.70;;;;;;;-145.18;100.00;46687.75;4966653;28;20431;-73
2022/04/30 05:31:08;;;;;;;26.60;13.80;;;;;;;-145.18;100.00;46691.66;4970627;28;20069;-72
2022/04/30 05:33:37;;;;;;;27.70;13.27;;;;;;;-145.18;100.00;46687.75;4970762;28;20058;-73
2022/04/30 05:36:03;;;;;;;23.40;13.03;;;;;;;-145.18;100.00;46691.66;4970978;28;20050;-73
2022/04/30 05:38:28;;;;;;;22.30;12.93;;;;;;;-145.18;100.00;46689.69;4969947;28;20285;-72
2022/04/30 05:40:54;;;;;;;18.77;12.70;;;;;;;-145.18;100.00;46695.56;4970879;28;20058;-74
2022/04/30 05:43:19;;;;;;;21.30;12.83;;;;;;;-145.18;100.00;46691.66;4970733;28;20030;-73
2022/04/30 05:45:45;;;;;;;25.97;12.23;;;;;;;-145.18;100.00;46685.78;4970623;28;20030;-73
2022/04/30 05:48:11;;;;;;;23.33;13.00;;;;;;;-145.18;100.00;46689.69;4970839;28;20042;-73
2022/04/30 05:50:36;;;;;;;22.23;13.37;;;;;;;-145.18;100.00;46691.66;4970990;28;20034;-73
2022/04/30 05:53:02;;;;;;;20.63;12.77;;;;;;;-145.18;100.00;46689.69;4970326;28;20027;-72
2022/04/30 05:55:28;;;;;;;23.07;12.73;;;;;;;-145.18;100.00;46685.78;4971097;28;20034;-73
2022/04/30 05:57:54;;;;;;;24.47;11.13;;;;;;;-145.18;100.00;46683.84;4970358;28;20085;-73
2022/04/30 06:00:19;;;;;;;19.47;11.40;;;;;;;-145.18;100.00;46685.78;4967029;28;20285;-73
2022/04/30 06:02:46;;;;;;;19.30;10.97;;;;;;;-145.18;100.00;46672.13;4969510;28;20130;-72
2022/04/30 06:05:11;;;;;;;22.07;11.40;;;;;;;-145.18;100.00;46674.06;4970671;28;20030;-73
2022/04/30 06:07:37;;;;;;;23.07;12.33;;;;;;;-145.18;100.00;46666.25;4970466;28;20280;-73
2022/04/30 06:10:04;;;;;;;19.63;11.67;;;;;;;-145.18;100.00;46658.44;4970324;28;20339;-73
2022/04/30 06:12:29;;;;;;;20.43;11.60;;;;;;;-145.18;100.00;46654.53;4963147;28;20043;-72
2022/04/30 06:14:55;;;;;;;17.43;11.50;;;;;;;-145.18;100.00;46640.88;4970228;28;20272;-73
2022/04/30 06:17:21;;;;;;;16.50;11.10;;;;;;;-145.18;100.00;46597.88;4970762;28;20114;-73
2022/04/30 06:19:46;;;;;;;16.47;10.70;;;;;;;-145.18;100.00;46582.25;4969787;28;20033;-73
2022/04/30 06:22:12;;;;;;;16.50;9.77;;;;;;;-145.18;100.00;46562.72;4970946;28;20484;-72
2022/04/30 06:24:37;;;;;;;19.47;11.13;;;;;;;-145.18;100.00;46560.78;4969933;28;20041;-72
2022/04/30 06:27:03;;;;;;;15.63;10.60;;;;;;;-145.18;100.00;46556.88;4970475;28;20031;-72
2022/04/30 06:29:28;;;;;;;16.40;10.73;;;;;;;-145.18;100.00;46547.09;4970063;28;20042;-73
2022/04/30 06:31:55;;;;;;;16.83;9.70;;;;;;;-145.18;100.00;46539.28;4953228;28;20042;-73
2022/04/30 06:34:21;;;;;;;17.20;9.70;;;;;;;-145.18;100.00;46537.34;4969849;28;20384;-73
2022/04/30 06:36:46;;;;;;;15.73;9.97;;;;;;;-145.18;100.00;46551.00;4970410;28;20336;-73
2022/04/30 06:39:12;;;;;;;15.53;10.03;;;;;;;-145.18;100.00;46543.19;4990617;28;20041;-73
2022/04/30 06:41:37;;;;;;;15.37;9.60;;;;;;;-145.18;100.00;46551.00;4993010;28;20070;-73
2022/04/30 06:44:03;;;;;;;15.17;10.57;;;;;;;-145.18;100.00;46551.00;4992598;28;20042;-73
2022/04/30 06:46:28;;;;;;;16.30;10.27;;;;;;;-145.18;100.00;46562.72;4993235;28;20030;-73
2022/04/30 06:48:54;;;;;;;16.73;10.00;;;;;;;-145.18;100.00;46556.88;4992635;28;20634;-73
2022/04/30 06:51:19;;;;;;;13.37;8.80;;;;;;;-145.18;100.00;46558.81;4993218;28;20034;-73
2022/04/30 06:59:12;;;;;;;18.13;9.63;;;;;;;-145.18;100.00;46572.50;4973353;28;20280;-72
2022/04/30 07:01:59;;;;;;;12.00;8.53;;;;;;;-145.18;100.00;46582.25;4971747;28;20268;-73
2022/04/30 07:04:26;;;;;;;15.03;8.10;;;;;;;-145.18;100.00;46584.22;4942073;29;20078;-72
2022/04/30 07:06:52;;;;;;;15.70;9.87;;;;;;;-145.18;100.00;46586.16;4934606;29;20740;-72
2022/04/30 07:09:18;;;;;;;15.07;8.53;;;;;;;-145.18;100.00;46588.13;4932979;29;20285;-72
2022/04/30 07:11:44;;;;;;;19.27;9.93;;;;;;;-145.18;100.00;46593.97;4934223;29;20043;-72
2022/04/30 07:14:10;;;;;;;14.10;8.53;;;;;;;-145.18;100.00;46590.06;4932597;29;20044;-72
2022/04/30 07:16:35;;;;;;;15.67;9.03;;;;;;;-145.18;100.00;46593.97;4934923;29;20293;-72
2022/04/30 07:19:02;;;;;;;13.80;9.03;;;;;;;-145.18;100.00;46590.06;4934280;29;20045;-72
2022/04/30 07:21:28;;;;;;;13.63;9.10;;;;;;;-145.18;100.00;46593.97;4934910;29;20107;-72
2022/04/30 07:23:54;;;;;;;12.60;8.93;;;;;;;-145.18;100.00;46605.69;4934429;29;20274;-73
2022/04/30 07:26:20;;;;;;;15.83;8.50;;;;;;;-145.18;100.00;46592.03;4934646;29;20274;-73
2022/04/30 07:28:46;;;;;;;12.30;8.37;;;;;;;-145.18;100.00;46611.56;4934176;29;20313;-72
2022/04/30 07:31:12;;;;;;;11.30;7.67;;;;;;;-145.18;100.00;46627.19;4934179;29;20469;-73
2022/04/30 07:33:38;;;;;;;15.13;8.80;;;;;;;-145.18;100.00;46631.09;4933773;29;20048;-72
2022/04/30 07:36:04;;;;;;;14.37;7.70;;;;;;;-145.18;100.00;46611.56;4917267;29;20399;-72
2022/04/30 07:38:29;;;;;;;18.53;8.67;;;;;;;-145.18;100.00;46613.50;4934315;29;20083;-73
2022/04/30 07:40:55;;;;;;;14.73;8.13;;;;;;;-145.18;100.00;46621.31;4934179;29;20044;-72
2022/04/30 07:43:20;;;;;;;15.90;7.90;;;;;;;-145.18;100.00;46621.31;4933842;29;20120;-73
2022/04/30 07:45:45;;;;;;;13.27;7.90;;;;;;;-145.18;100.00;46623.28;4934129;29;20032;-72
2022/04/30 07:48:11;;;;;;;10.20;6.93;;;;;;;-145.18;100.00;46668.22;4932301;29;20043;-73
2022/04/30 07:50:37;;;;;;;12.63;6.97;;;;;;;-145.18;100.00;46687.75;4933197;29;20114;-73
2022/04/30 07:53:07;;;;;;;11.53;5.30;;;;;;;-145.18;100.00;46713.13;4933431;29;20359;-73
2022/04/30 07:55:32;;;;;;;10.10;5.43;;;;;;;-145.18;100.00;46758.06;4951232;28;20343;-73
2022/04/30 07:57:59;;;;;;;9.90;5.27;;;;;;;-145.18;100.00;46832.28;4972052;28;20312;-73
2022/04/30 08:00:26;;;;;;;9.43;5.30;;;;;;;-145.18;100.00;46965.13;4972318;28;20046;-73
2022/04/30 08:02:54;;;;;;;9.60;4.90;;;;;;;-145.18;100.00;46820.56;4971784;28;20370;-73
2022/04/30 08:05:20;;;;;;;11.33;4.80;;;;;;;-145.18;100.00;47383.19;4972104;28;20280;-72
2022/04/30 08:07:45;;;;;;;11.70;5.23;;;;;;;-145.18;100.00;46828.38;4971862;28;20269;-73
2022/04/30 08:10:10;;;;;;;7.83;4.90;;;;;;;-145.18;100.00;46732.66;4971659;28;20129;-72
2022/04/30 08:12:36;;;;;;;9.37;5.20;;;;;;;-145.18;100.00;46758.06;4950868;28;20075;-72
2022/04/30 08:15:01;;;;;;;6.30;4.80;;;;;;;-145.18;100.00;46742.44;4939214;28;20042;-73
2022/04/30 08:17:29;;;;;;;6.30;4.03;;;;;;;-145.18;100.00;46730.72;4971892;28;20038;-73
2022/04/30 08:19:54;;;;;;;9.57;4.93;;;;;;;-145.18;100.00;46740.47;4971148;28;20042;-73
2022/04/30 08:22:19;;;;;;;10.37;4.90;;;;;;;-145.18;100.00;46799.09;4970128;28;20276;-73
2022/04/30 08:24:45;;;;;;;8.20;5.17;;;;;;;-145.18;100.00;46742.44;4951376;28;20042;-73
2022/04/30 08:27:11;;;;;;;9.67;4.40;;;;;;;-145.18;100.00;47051.09;4934698;28;20042;-73
2022/04/30 08:29:36;;;;;;;9.07;4.97;;;;;;;-145.18;100.00;47357.78;4934227;28;20043;-73
2022/04/30 08:32:03;;;;;;;15.00;5.10;;;;;;;-145.18;100.00;46851.81;4953600;28;20496;-73
2022/04/30 08:34:29;;;;;;;7.47;4.73;;;;;;;-145.18;100.00;47371.47;4955223;28;20034;-73
2022/04/30 08:36:54;;;;;;;6.57;4.57;;;;;;;-145.18;100.00;47348.03;4952019;28;20288;-73
2022/04/30 08:39:20;;;;;;;10.00;5.20;;;;;;;-145.18;100.00;47391.00;4968669;28;20569;-73
2022/04/30 08:41:46;;;;;;;10.33;5.63;;;;;;;-145.18;100.00;46865.50;4961871;28;20042;-73
2022/04/30 08:44:17;;;;;;;11.13;6.23;;;;;;;-145.18;100.00;46894.81;4957275;28;20500;-73
2022/04/30 08:46:43;;;;;;;10.00;5.90;;;;;;;-145.18;100.00;46750.25;4971038;28;20678;-73
2022/04/30 08:49:10;;;;;;;11.27;4.97;;;;;;;-145.18;100.00;47441.81;4970669;28;20296;-72
2022/04/30 08:51:37;;;;;;;9.60;5.10;;;;;;;-145.18;100.00;47262.06;4971081;28;20281;-73
2022/04/30 08:54:03;;;;;;;8.83;5.63;;;;;;;-145.18;100.00;47420.31;4969764;28;20318;-73
2022/04/30 08:56:28;;;;;;;7.37;5.50;;;;;;;-145.18;100.00;47418.38;4970776;28;20769;-73
2022/04/30 08:59:02;;;;;;;12.10;6.17;;;;;;;-145.18;100.00;47385.16;4970162;28;20316;-73
2022/04/30 09:01:28;;;;;;;13.47;5.43;;;;;;;-145.18;100.00;47410.56;4963089;28;20081;-73
2022/04/30 09:03:56;;;;;;;12.37;6.30;;;;;;;-145.18;100.00;47349.97;4952634;28;20288;-73
2022/04/30 09:06:22;;;;;;;12.43;7.00;;;;;;;-145.18;100.00;47385.16;4970917;28;20265;-73
2022/04/30 09:08:51;;;;;;;8.93;5.57;;;;;;;-145.18;100.00;47273.78;4969821;28;20289;-73
2022/04/30 09:11:25;;;;;;;7.83;5.23;;;;;;;-145.18;100.00;47252.31;4970754;28;20367;-73
2022/04/30 09:13:51;;;;;;;15.07;5.40;;;;;;;-145.18;100.00;47275.75;4970054;28;20268;-73
2022/04/30 09:16:23;;;;;;;10.67;4.93;;;;;;;-145.18;100.00;47336.31;4970719;28;20804;-73
2022/04/30 09:18:50;;;;;;;9.33;5.33;;;;;;;-145.18;100.00;47340.22;4962908;28;20062;-73
2022/04/30 09:21:17;;;;;;;8.90;5.37;;;;;;;-145.18;100.00;47344.13;4970285;28;20812;-73
2022/04/30 09:23:43;;;;;;;9.67;5.33;;;;;;;-145.18;100.00;47355.84;4970038;28;20279;-73
2022/04/30 09:26:10;;;;;;;9.77;5.43;;;;;;;-145.18;100.00;47349.97;4970089;28;20300;-73
2022/04/30 09:28:37;;;;;;;7.77;4.90;;;;;;;-145.18;100.00;47328.50;4969960;28;20400;-73
2022/04/30 09:31:14;;;;;;;8.50;4.93;;;;;;;-145.18;100.00;47314.81;4970148;28;20277;-73
2022/04/30 09:33:48;;;;;;;9.50;4.77;;;;;;;-145.18;100.00;47346.06;4970049;28;20304;-73
2022/04/30 09:38:58;;;;;;;6.57;4.43;;;;;;;-145.18;100.00;47363.66;4960915;28;20264;-73
2022/04/30 09:41:27;;;;;;;10.60;5.03;;;;;;;-145.18;100.00;47349.97;4952907;28;20268;-73
2022/04/30 09:44:00;;;;;;;11.63;4.77;;;;;;;-145.18;100.00;47367.56;4970018;28;20027;-73
2022/04/30 09:46:26;;;;;;;8.07;4.07;;;;;;;-145.18;100.00;47346.06;4970078;28;20364;-72
2022/04/30 09:54:20;;;;;;;7.43;4.73;;;;;;;-145.18;100.00;47250.34;4970237;28;20364;-73
2022/04/30 09:56:49;;;;;;;11.43;4.60;;;;;;;-145.18;100.00;47297.22;4970064;28;20699;-73
2022/04/30 09:59:15;;;;;;;9.77;4.73;;;;;;;-145.18;100.00;47326.53;4960631;28;20035;-73
2022/04/30 10:01:42;;;;;;;9.57;4.87;;;;;;;-145.18;100.00;47348.03;4954018;28;20641;-73
2022/04/30 10:04:10;;;;;;;8.87;4.70;;;;;;;-145.18;100.00;47361.72;4955003;28;20071;-73
2022/04/30 10:06:41;;;;;;;7.37;4.67;;;;;;;-145.18;100.00;47353.88;4953900;28;20272;-73
2022/04/30 10:09:09;;;;;;;9.67;3.77;;;;;;;-145.18;100.00;47355.84;4955710;28;20654;-73
2022/04/30 10:11:56;;;;;;;9.67;3.80;;;;;;;-145.18;100.00;47385.16;4966688;28;20285;-73
2022/04/30 10:14:49;;;;;;;7.57;4.10;;;;;;;-145.18;100.00;47369.53;4972376;28;20327;-73
2022/04/30 10:17:20;;;;;;;8.63;4.57;;;;;;;-145.18;100.00;47369.53;4973800;28;20268;-73
2022/04/30 10:19:58;;;;;;;10.13;4.00;;;;;;;-145.18;100.00;47383.19;4972601;28;20276;-72
2022/04/30 10:22:24;;;;;;;5.83;4.13;;;;;;;-145.18;100.00;47371.47;4973733;28;20335;-72
2022/04/30 10:24:52;;;;;;;7.93;3.80;;;;;;;-145.18;100.00;47371.47;4972942;28;20277;-73
2022/04/30 10:27:18;;;;;;;7.57;4.27;;;;;;;-145.18;100.00;47379.28;4973395;28;20434;-72
2022/04/30 10:29:59;;;;;;;7.17;4.43;;;;;;;-145.18;100.00;47359.75;4971419;28;20303;-72
2022/04/30 10:32:34;;;;;;;8.30;4.33;;;;;;;-145.18;100.00;47359.75;4971922;28;20034;-73
2022/04/30 10:35:00;;;;;;;6.37;4.93;;;;;;;-145.18;100.00;47373.44;4972369;28;20268;-73
2022/04/30 10:37:37;;;;;;;5.53;3.43;;;;;;;-145.18;100.00;47348.03;4966650;28;20277;-72
2022/04/30 10:40:08;;;;;;;7.00;3.53;;;;;;;-145.18;100.00;47348.03;4970869;28;20273;-73
2022/04/30 10:42:42;;;;;;;7.67;3.97;;;;;;;-145.18;100.00;47357.78;4971894;28;20750;-72
2022/04/30 10:45:11;;;;;;;5.30;3.27;;;;;;;-145.18;100.00;47365.63;4973012;28;20352;-72
2022/04/30 10:47:58;;;;;;;7.73;4.53;;;;;;;-145.18;100.00;47336.31;4973802;28;20371;-73
2022/04/30 10:50:24;;;;;;;16.30;3.40;;;;;;;-145.18;100.00;47359.75;4972704;28;21189;-73
2022/04/30 10:52:51;;;;;;;8.30;4.53;;;;;;;-145.18;100.00;47361.72;4973535;28;20327;-73
2022/04/30 10:55:18;;;;;;;9.33;4.13;;;;;;;-145.18;100.00;47369.53;4973279;28;20039;-73
2022/04/30 10:57:44;;;;;;;8.97;5.10;;;;;;;-145.18;100.00;47367.56;4973372;28;20301;-73
2022/04/30 11:00:11;;;;;;;9.67;5.03;;;;;;;-145.18;100.00;47428.13;4955410;28;20284;-73
2022/04/30 11:02:37;;;;;;;7.70;4.77;;;;;;;-145.18;100.00;47404.69;4971571;28;20657;-72
2022/04/30 11:05:03;;;;;;;8.17;4.60;;;;;;;-145.18;100.00;47420.31;4955125;28;20269;-73
2022/04/30 11:07:30;;;;;;;10.80;5.10;;;;;;;-145.18;100.00;47418.38;4972745;28;20142;-72
2022/04/30 11:09:56;;;;;;;11.37;5.17;;;;;;;-145.18;100.00;47453.53;4961659;28;20411;-73
2022/04/30 11:12:27;;;;;;;6.97;3.73;;;;;;;-145.18;100.00;47432.03;4972701;28;20272;-72
2022/04/30 11:14:54;;;;;;;8.90;4.27;;;;;;;-145.18;100.00;47437.91;4972404;28;20257;-73
2022/04/30 11:17:20;;;;;;;5.93;3.90;;;;;;;-145.18;100.00;47422.28;4972945;28;20265;-73
2022/04/30 11:19:45;;;;;;;6.67;3.20;;;;;;;-145.18;100.00;47435.94;4964578;28;20293;-73
2022/04/30 11:22:13;;;;;;;3.73;2.57;;;;;;;-145.18;100.00;47387.09;4953803;28;20526;-73
2022/04/30 11:24:41;;;;;;;4.93;2.50;;;;;;;-145.18;100.00;47379.28;4971922;28;20181;-73
2022/04/30 11:27:08;;;;;;;6.20;2.87;;;;;;;-145.18;100.00;47383.19;4972670;28;20257;-73
2022/04/30 11:29:47;;;;;;;4.23;2.03;;;;;;;-145.18;100.00;47377.34;4971756;28;20319;-72
2022/04/30 11:32:19;;;;;;;5.33;2.90;;;;;;;-145.18;100.00;47387.09;4957108;28;20295;-72
2022/04/30 11:34:45;;;;;;;3.27;2.30;;;;;;;-145.18;100.00;47375.38;4972080;28;20265;-73